Time;durP1;ratioP1;P1;durP2;ratioP2;P2;SDS_P1;SDS_P2;PMS_P1;PMS_P2;Temp;Humidity;BMP_temperature;BMP_pressure;BME280_temperature;BME280_humidity;BME280_pressure;Samples;Min_cycle;Max_cycle;Signal;HPM_P1;HPM_P2
2023/11/16 00:00:33;;;;;;;;;;;;;;;-0.07;100.00;99307.45;436554;1250;139223;-62
2023/11/16 00:10:40;;;;;;;17.70;14.80;;;;;;;-0.28;100.00;99312.92;436313;1253;125715;-63
2023/11/16 00:20:47;;;;;;;15.50;12.80;;;;;;;-0.47;100.00;99319.73;436100;1253;139647;-62
2023/11/16 00:30:52;;;;;;;;;;;;;;;-0.57;100.00;99328.91;436749;1253;139249;-63
2023/11/16 00:41:00;;;;;;;21.10;17.50;;;;;;;-0.60;100.00;99342.20;437129;1253;126661;-62
2023/11/16 00:51:08;;;;;;;29.70;23.70;;;;;;;-0.54;100.00;99340.36;436588;1253;140260;-62
2023/11/16 01:01:15;;;;;;;30.30;21.60;;;;;;;-0.39;100.00;99343.62;436774;1254;139658;-62
2023/11/16 01:11:27;;;;;;;31.10;22.90;;;;;;;-0.26;100.00;99345.55;435828;1253;140761;-60
2023/11/16 01:21:40;;;;;;;33.20;24.70;;;;;;;-0.17;100.00;99355.86;436941;1254;139465;-62
2023/11/16 01:31:53;;;;;;;32.10;23.60;;;;;;;0.14;100.00;99361.16;437086;1253;139234;-61
2023/11/16 01:42:00;;;;;;;31.30;24.60;;;;;;;0.34;100.00;99361.85;437609;1253;139417;-62
2023/11/16 01:52:07;;;;;;;43.40;30.20;;;;;;;0.49;100.00;99357.33;436250;1254;139678;-62
2023/11/16 02:02:11;;;;;;;;;;;;;;;0.65;100.00;99366.88;436255;1253;139033;-61
2023/11/16 02:12:18;;;;;;;44.80;20.30;;;;;;;0.76;100.00;99378.85;436042;1253;126364;-62
2023/11/16 02:22:26;;;;;;;38.10;18.30;;;;;;;0.83;100.00;99375.39;436107;1253;139084;-62
2023/11/16 02:32:32;;;;;;;30.30;19.80;;;;;;;0.90;100.00;99371.39;436326;1253;139098;-62
2023/11/16 02:42:39;;;;;;;34.10;17.70;;;;;;;0.99;100.00;99377.16;435657;1254;140619;-61
2023/11/16 02:52:45;;;;;;;56.10;15.40;;;;;;;1.04;100.00;99379.98;436421;1251;139139;-62
2023/11/16 03:02:51;;;;;;;32.40;15.60;;;;;;;1.00;100.00;99393.02;435690;1251;139032;-62
2023/11/16 03:12:56;;;;;;;;;;;;;;;1.01;100.00;99387.98;435827;1251;140511;-61
2023/11/16 03:23:03;;;;;;;22.70;14.20;;;;;;;0.99;100.00;99393.02;435937;1251;125259;-62
2023/11/16 03:33:11;;;;;;;23.90;13.20;;;;;;;0.97;100.00;99402.05;435998;1251;139466;-62
2023/11/16 03:43:18;;;;;;;25.90;12.00;;;;;;;0.94;100.00;99404.73;435635;1251;139076;-62
2023/11/16 03:53:24;;;;;;;23.20;12.00;;;;;;;0.85;100.00;99404.78;435986;1253;139407;-62
2023/11/16 04:03:31;;;;;;;29.90;9.30;;;;;;;0.71;100.00;99409.48;436035;1251;138911;-62
2023/11/16 04:13:38;;;;;;;31.10;9.80;;;;;;;0.54;100.00;99416.98;436109;1253;139940;-61
2023/11/16 04:23:44;;;;;;;16.70;10.20;;;;;;;0.41;100.00;99419.37;436484;1253;138924;-61
2023/11/16 04:33:52;;;;;;;46.90;11.10;;;;;;;0.21;100.00;99411.59;435925;1251;139412;-61
2023/11/16 04:44:01;;;;;;;36.90;11.70;;;;;;;0.07;100.00;99408.31;437736;1253;140159;-62
2023/11/16 04:54:09;;;;;;;36.70;13.20;;;;;;;-0.06;100.00;99412.72;436047;1254;139883;-61
2023/11/16 05:04:16;;;;;;;34.50;15.00;;;;;;;-0.14;100.00;99413.96;436290;1252;139264;-62
2023/11/16 05:14:23;;;;;;;41.00;12.50;;;;;;;-0.18;100.00;99424.70;435814;1254;139211;-63
2023/11/16 05:24:28;;;;;;;;;;;;;;;-0.18;100.00;99431.24;436041;1254;140234;-61
2023/11/16 05:34:34;;;;;;;44.80;13.20;;;;;;;-0.26;100.00;99438.81;436520;1254;125735;-61
2023/11/16 05:44:40;;;;;;;28.30;12.50;;;;;;;-0.33;100.00;99446.36;435822;1251;139764;-61
2023/11/16 05:54:46;;;;;;;;;;;;;;;-0.37;100.00;99450.41;435847;1250;140973;-62
2023/11/16 06:04:52;;;;;;;42.30;12.50;;;;;;;-0.43;100.00;99450.86;436291;1251;125831;-61
2023/11/16 06:15:00;;;;;;;39.40;11.90;;;;;;;-0.58;100.00;99456.33;437664;1249;139286;-61
2023/11/16 06:25:10;;;;;;;52.40;12.10;;;;;;;-0.69;100.00;99461.71;435753;1250;139084;-62
2023/11/16 06:35:16;;;;;;;27.90;11.80;;;;;;;-0.80;100.00;99467.59;435516;1252;139548;-62
2023/11/16 06:45:24;;;;;;;36.30;14.40;;;;;;;-0.77;100.00;99458.78;435783;1253;139077;-61
2023/11/16 06:55:32;;;;;;;29.80;11.70;;;;;;;-0.63;100.00;99441.65;437454;1251;139822;-64
2023/11/16 07:05:41;;;;;;;30.70;13.70;;;;;;;-0.46;100.00;99428.76;435568;1251;140150;-63
2023/11/16 07:15:49;;;;;;;27.20;14.00;;;;;;;-0.23;100.00;99427.39;436025;1251;139276;-67
2023/11/16 07:25:59;;;;;;;21.70;10.80;;;;;;;0.07;100.00;99443.77;436273;1253;139155;-66
2023/11/16 07:36:07;;;;;;;21.10;13.00;;;;;;;0.22;100.00;99448.75;435816;1253;139105;-67
2023/11/16 07:46:14;;;;;;;27.80;15.80;;;;;;;0.31;100.00;99438.37;435970;1253;140140;-69
2023/11/16 07:56:22;;;;;;;19.10;13.50;;;;;;;0.50;100.00;99432.59;436296;1250;139349;-66
2023/11/16 08:06:29;;;;;;;21.60;15.30;;;;;;;0.74;100.00;99431.45;436123;1251;139120;-67
2023/11/16 08:16:36;;;;;;;23.10;16.60;;;;;;;0.97;100.00;99434.30;435984;1249;139477;-64
2023/11/16 08:26:43;;;;;;;22.40;16.40;;;;;;;1.19;100.00;99425.40;436021;1250;140101;-65
2023/11/16 08:36:49;;;;;;;22.60;16.90;;;;;;;1.44;100.00;99428.88;436132;1253;140109;-71
2023/11/16 08:47:03;;;;;;;23.60;18.50;;;;;;;1.65;100.00;99426.88;435946;1250;139390;-66
2023/11/16 08:57:11;;;;;;;19.80;15.80;;;;;;;1.72;100.00;99420.77;435672;1251;139285;-67
2023/11/16 09:07:17;;;;;;;17.40;13.60;;;;;;;1.74;100.00;99414.86;437086;1250;139736;-69
2023/11/16 09:17:24;;;;;;;18.00;13.30;;;;;;;1.93;100.00;99401.50;435243;1253;140508;-64
2023/11/16 09:27:31;;;;;;;18.40;14.10;;;;;;;2.07;100.00;99404.34;438913;1250;139081;-73
2023/11/16 09:37:37;;;;;;;18.50;14.00;;;;;;;2.17;100.00;99404.55;440965;1253;139148;-77
2023/11/16 09:47:47;;;;;;;20.10;13.30;;;;;;;2.25;100.00;99389.80;439759;1249;139450;-79
2023/11/16 09:57:58;;;;;;;19.40;15.90;;;;;;;2.36;100.00;99381.66;440568;1250;139301;-74
2023/11/16 10:08:08;;;;;;;21.00;15.50;;;;;;;2.42;100.00;99371.95;439844;1250;138932;-71
2023/11/16 10:18:15;;;;;;;26.50;18.60;;;;;;;2.53;100.00;99357.05;439566;1251;138788;-71
2023/11/16 10:28:23;;;;;;;27.60;21.00;;;;;;;2.74;100.00;99329.91;439701;1249;139038;-68
2023/11/16 10:38:32;;;;;;;35.40;22.40;;;;;;;3.08;100.00;99317.06;436031;1254;139109;-73
2023/11/16 10:48:39;;;;;;;43.80;26.70;;;;;;;3.31;100.00;99306.15;439705;1250;139556;-75
2023/11/16 10:58:47;;;;;;;43.30;29.30;;;;;;;3.38;100.00;99297.58;439633;1251;140823;-66
2023/11/16 11:08:54;;;;;;;43.40;30.30;;;;;;;3.45;100.00;99293.17;436909;1253;139158;-65
2023/11/16 11:19:03;;;;;;;41.40;28.80;;;;;;;3.47;100.00;99284.60;437587;1249;139440;-67
2023/11/16 11:29:10;;;;;;;42.80;29.70;;;;;;;3.55;100.00;99271.52;436546;1251;139320;-70
2023/11/16 11:39:17;;;;;;;41.00;28.80;;;;;;;3.66;100.00;99260.34;436336;1250;140146;-72
2023/11/16 11:49:25;;;;;;;37.80;27.50;;;;;;;3.72;100.00;99249.01;436104;1251;139822;-68
2023/11/16 11:59:32;;;;;;;39.80;28.10;;;;;;;3.79;100.00;99242.48;435791;1254;163475;-78
2023/11/16 12:09:40;;;;;;;32.10;24.90;;;;;;;3.88;100.00;99231.20;440642;1251;139158;-68
2023/11/16 12:19:49;;;;;;;45.60;32.20;;;;;;;3.99;100.00;99231.63;436300;1250;139306;-67
2023/11/16 12:30:00;;;;;;;38.40;25.80;;;;;;;4.03;100.00;99219.13;435309;1251;139227;-68
2023/11/16 12:40:16;;;;;;;40.70;28.50;;;;;;;4.08;100.00;99215.28;436557;1250;139519;-70
2023/11/16 12:50:23;;;;;;;34.50;26.10;;;;;;;4.16;100.00;99206.45;436472;1250;139152;-69
2023/11/16 13:00:29;;;;;;;35.50;26.20;;;;;;;4.33;100.00;99193.23;435726;1250;139322;-67
2023/11/16 13:10:35;;;;;;;36.30;26.80;;;;;;;4.45;100.00;99187.14;435927;1250;139153;-67
2023/11/16 13:20:42;;;;;;;38.50;27.40;;;;;;;4.56;100.00;99174.51;435708;1251;139258;-67
2023/11/16 13:30:48;;;;;;;44.10;30.90;;;;;;;4.64;100.00;99156.65;435137;1253;141101;-68
2023/11/16 13:40:55;;;;;;;38.60;29.30;;;;;;;4.52;100.00;99156.19;434977;1254;142971;-64
2023/11/16 13:51:02;;;;;;;38.90;32.00;;;;;;;4.32;100.00;99153.10;435531;1255;139205;-67
2023/11/16 14:01:09;;;;;;;35.60;28.10;;;;;;;4.25;100.00;99153.39;435600;1253;139518;-77
2023/11/16 14:11:16;;;;;;;40.20;29.40;;;;;;;4.26;100.00;99158.21;439730;1250;140405;-76
2023/11/16 14:21:22;;;;;;;40.80;30.10;;;;;;;4.30;100.00;99157.33;437566;1250;141476;-67
2023/11/16 14:31:31;;;;;;;43.20;32.60;;;;;;;4.33;100.00;99155.11;435788;1253;140670;-66
2023/11/16 14:41:37;;;;;;;44.30;31.70;;;;;;;4.40;100.00;99150.85;435747;1251;139105;-69
2023/11/16 14:51:44;;;;;;;;;;;;;;;4.44;100.00;99140.58;435894;1253;139282;-69
2023/11/16 15:01:51;;;;;;;41.80;31.40;;;;;;;4.36;100.00;99123.08;436093;1251;126230;-67
2023/11/16 15:11:58;;;;;;;40.90;33.20;;;;;;;4.17;100.00;99106.10;436142;1253;139451;-65
2023/11/16 15:22:05;;;;;;;43.80;32.60;;;;;;;3.93;100.00;99092.81;435493;1250;141180;-62
2023/11/16 15:32:20;;;;;;;39.10;29.60;;;;;;;3.73;100.00;99095.05;435302;1253;139683;-62
2023/11/16 15:42:27;;;;;;;46.60;34.10;;;;;;;3.66;100.00;99093.78;435604;1253;139141;-62
2023/11/16 15:52:33;;;;;;;35.00;28.00;;;;;;;3.68;100.00;99080.39;436008;1254;141808;-64
2023/11/16 16:02:41;;;;;;;32.90;26.60;;;;;;;3.64;100.00;99065.31;435827;1255;140746;-65
2023/11/16 16:12:48;;;;;;;32.00;25.80;;;;;;;3.63;100.00;99055.29;448120;1253;139267;-64
2023/11/16 16:22:56;;;;;;;34.10;25.70;;;;;;;3.72;100.00;99038.14;436071;1252;139265;-65
2023/11/16 16:33:03;;;;;;;22.80;18.20;;;;;;;3.92;100.00;99031.34;435560;1253;140282;-65
2023/11/16 16:43:10;;;;;;;17.20;12.90;;;;;;;3.89;100.00;99020.91;435626;1253;139877;-64
2023/11/16 16:53:18;;;;;;;20.40;16.60;;;;;;;3.72;100.00;99010.46;435707;1253;140878;-64
2023/11/16 17:03:24;;;;;;;24.60;18.80;;;;;;;3.54;100.00;99007.26;436080;1253;139247;-65
2023/11/16 17:13:32;;;;;;;36.10;27.80;;;;;;;3.55;100.00;99012.58;435982;1255;140063;-64
2023/11/16 17:23:39;;;;;;;45.20;34.70;;;;;;;3.84;100.00;99018.20;436331;1253;139211;-64
2023/11/16 17:33:45;;;;;;;49.90;37.30;;;;;;;4.08;100.00;99023.70;437086;1251;139053;-65
2023/11/16 17:43:54;;;;;;;48.70;38.00;;;;;;;4.21;100.00;99010.27;436375;1253;139268;-65
2023/11/16 17:54:01;;;;;;;52.50;38.70;;;;;;;4.27;100.00;98998.91;435559;1253;139912;-65
2023/11/16 18:04:07;;;;;;;51.20;36.00;;;;;;;4.32;100.00;99003.17;435966;1251;139716;-62
2023/11/16 18:14:14;;;;;;;46.40;31.50;;;;;;;4.30;100.00;98998.95;436460;1254;139615;-62
2023/11/16 18:24:20;;;;;;;46.90;33.10;;;;;;;4.17;100.00;99003.52;436105;1253;139232;-63
2023/11/16 18:34:39;;;;;;;45.50;32.40;;;;;;;4.03;100.00;99012.31;435973;1253;139693;-62
2023/11/16 18:44:48;;;;;;;50.40;32.90;;;;;;;3.92;100.00;99014.20;435914;1253;139276;-65
2023/11/16 18:54:54;;;;;;;43.20;31.30;;;;;;;3.82;100.00;99008.63;435974;1253;139219;-64
2023/11/16 19:05:05;;;;;;;47.60;35.30;;;;;;;3.68;100.00;99008.52;436638;1254;140453;-62
2023/11/16 19:15:13;;;;;;;43.20;32.00;;;;;;;3.55;100.00;99001.00;436473;1253;139200;-61
2023/11/16 19:25:19;;;;;;;46.00;33.70;;;;;;;3.45;100.00;98999.48;435664;1255;140639;-63
2023/11/16 19:35:25;;;;;;;48.20;34.60;;;;;;;3.43;100.00;98997.71;435614;1255;139306;-62
2023/11/16 19:45:32;;;;;;;50.80;34.00;;;;;;;3.54;100.00;98995.64;437118;1253;139272;-64
2023/11/16 19:55:39;;;;;;;47.80;32.10;;;;;;;3.67;100.00;98988.34;435834;1253;140452;-63
2023/11/16 20:05:46;;;;;;;45.40;33.50;;;;;;;3.74;100.00;98982.63;435669;1254;139631;-62
2023/11/16 20:15:55;;;;;;;51.60;31.70;;;;;;;3.73;100.00;98969.73;435647;1255;140249;-63
2023/11/16 20:26:03;;;;;;;50.90;36.50;;;;;;;3.72;100.00;98956.44;435597;1254;139276;-62
2023/11/16 20:36:15;;;;;;;51.10;34.50;;;;;;;3.73;100.00;98946.54;435732;1253;139372;-62
2023/11/16 20:46:23;;;;;;;51.10;35.50;;;;;;;3.70;100.00;98933.34;437265;1254;139267;-63
2023/11/16 20:56:29;;;;;;;55.20;36.10;;;;;;;3.63;100.00;98917.86;436031;1254;139121;-63
2023/11/16 21:06:36;;;;;;;51.00;34.20;;;;;;;3.48;100.00;98910.09;435784;1254;140591;-62
2023/11/16 21:16:43;;;;;;;55.10;34.40;;;;;;;3.33;100.00;98895.69;436046;1254;140328;-63
2023/11/16 21:26:50;;;;;;;54.70;35.40;;;;;;;3.24;100.00;98885.03;435952;1254;140309;-63
2023/11/16 21:36:57;;;;;;;53.30;35.30;;;;;;;3.15;100.00;98875.23;436344;1254;139777;-63
2023/11/16 21:47:05;;;;;;;49.00;33.90;;;;;;;3.06;100.00;98880.99;436289;1253;139603;-63
2023/11/16 21:57:11;;;;;;;53.00;36.30;;;;;;;3.01;100.00;98866.89;436397;1251;139204;-64
2023/11/16 22:07:17;;;;;;;53.90;38.90;;;;;;;2.97;100.00;98868.23;435574;1253;139453;-64
2023/11/16 22:17:24;;;;;;;58.40;38.30;;;;;;;3.06;100.00;98866.46;436298;1251;139291;-63
2023/11/16 22:27:30;;;;;;;65.90;33.20;;;;;;;3.14;100.00;98859.91;435812;1253;140000;-63
2023/11/16 22:37:38;;;;;;;48.80;32.00;;;;;;;3.15;100.00;98852.05;435192;1254;139998;-63
2023/11/16 22:47:45;;;;;;;44.40;30.00;;;;;;;3.18;100.00;98851.75;435789;1254;140944;-62
2023/11/16 22:57:49;;;;;;;;;;;;;;;3.23;100.00;98840.11;436926;1254;140094;-62
2023/11/16 23:07:58;;;;;;;53.30;31.10;;;;;;;3.28;100.00;98838.53;436134;1251;125348;-63
2023/11/16 23:18:04;;;;;;;41.60;28.00;;;;;;;3.32;100.00;98822.23;436985;1254;140929;-63
2023/11/16 23:28:11;;;;;;;42.90;27.60;;;;;;;3.34;100.00;98816.23;437624;1251;139464;-63
2023/11/16 23:38:17;;;;;;;45.30;27.40;;;;;;;3.37;100.00;98810.91;436546;1251;139829;-63
2023/11/16 23:48:24;;;;;;;45.60;27.90;;;;;;;3.39;100.00;98805.64;436556;1251;139317;-62
2023/11/16 23:58:30;;;;;;;;;;;;;;;3.40;100.00;98795.59;436057;1251;187082;-62
